地図

経路データ

SID SEASON NUMBER BASIN SUBBASIN NAME ISO_TIME NATURE LAT LON WMO_WIND WMO_PRES WMO_AGENCY TRACK_TYPE DIST2LAND LANDFALL IFLAG USA_AGENCY USA_ATCF_ID USA_LAT USA_LON USA_RECORD USA_STATUS USA_WIND USA_PRES USA_SSHS USA_R34_NE USA_R34_SE USA_R34_SW USA_R34_NW USA_R50_NE USA_R50_SE USA_R50_SW USA_R50_NW USA_R64_NE USA_R64_SE USA_R64_SW USA_R64_NW USA_POCI USA_ROCI USA_RMW USA_EYE TOKYO_LAT TOKYO_LON TOKYO_GRADE TOKYO_WIND TOKYO_PRES TOKYO_R50_DIR TOKYO_R50_LONG TOKYO_R50_SHORT TOKYO_R30_DIR TOKYO_R30_LONG TOKYO_R30_SHORT TOKYO_LAND CMA_LAT CMA_LON CMA_CAT CMA_WIND CMA_PRES HKO_LAT HKO_LON HKO_CAT HKO_WIND HKO_PRES NEWDELHI_LAT NEWDELHI_LON NEWDELHI_GRADE NEWDELHI_WIND NEWDELHI_PRES NEWDELHI_CI NEWDELHI_DP NEWDELHI_POCI REUNION_LAT REUNION_LON REUNION_TYPE REUNION_WIND REUNION_PRES REUNION_TNUM REUNION_CI REUNION_RMW REUNION_R34_NE REUNION_R34_SE REUNION_R34_SW REUNION_R34_NW REUNION_R50_NE REUNION_R50_SE REUNION_R50_SW REUNION_R50_NW REUNION_R64_NE REUNION_R64_SE REUNION_R64_SW REUNION_R64_NW BOM_LAT BOM_LON BOM_TYPE BOM_WIND BOM_PRES BOM_TNUM BOM_CI BOM_RMW BOM_R34_NE BOM_R34_SE BOM_R34_SW BOM_R34_NW BOM_R50_NE BOM_R50_SE BOM_R50_SW BOM_R50_NW BOM_R64_NE BOM_R64_SE BOM_R64_SW BOM_R64_NW BOM_ROCI BOM_POCI BOM_EYE BOM_POS_METHOD BOM_PRES_METHOD NADI_LAT NADI_LON NADI_CAT NADI_WIND NADI_PRES WELLINGTON_LAT WELLINGTON_LON WELLINGTON_WIND WELLINGTON_PRES DS824_LAT DS824_LON DS824_STAGE DS824_WIND DS824_PRES TD9636_LAT TD9636_LON TD9636_STAGE TD9636_WIND TD9636_PRES TD9635_LAT TD9635_LON TD9635_WIND TD9635_PRES TD9635_ROCI NEUMANN_LAT NEUMANN_LON NEUMANN_CLASS NEUMANN_WIND NEUMANN_PRES MLC_LAT MLC_LON MLC_CLASS MLC_WIND MLC_PRES USA_GUST BOM_GUST BOM_GUST_PER REUNION_GUST REUNION_GUST_PER USA_SEAHGT USA_SEARAD_NE USA_SEARAD_SE USA_SEARAD_SW USA_SEARAD_NW STORM_SPEED STORM_DIR
1979190N20290 1979 51 NA NA NOT_NAMED 1979-07-08 12:00:00 TS 20.4000 -70.0000 20 hurdat_atl main 88 88 O_____________ hurdat_atl AL031979 20.4000 -70.0000 TD 20 -1 6 337
1979190N20290 1979 51 NA NA NOT_NAMED 1979-07-08 15:00:00 TS 20.6725 -70.1251 main 113 108 P_____________ AL031979 20.6725 -70.1251 TD 22 -1 7 335
1979190N20290 1979 51 NA NA NOT_NAMED 1979-07-08 18:00:00 TS 21.0000 -70.3000 25 hurdat_atl main 137 137 O_____________ hurdat_atl AL031979 21.0000 -70.3000 TD 25 -1 8 332
1979190N20290 1979 51 NA NA NOT_NAMED 1979-07-08 21:00:00 TS 21.4076 -70.5498 main 179 178 P_____________ AL031979 21.4076 -70.5498 TD 25 -1 9 330
1979190N20290 1979 51 NA NA NOT_NAMED 1979-07-09 00:00:00 TS 21.8000 -70.8000 25 hurdat_atl main 223 223 O_____________ hurdat_atl AL031979 21.8000 -70.8000 TD 25 -1 8 328
1979190N20290 1979 51 NA NA NOT_NAMED 1979-07-09 03:00:00 TS 22.0575 -70.9802 main 229 225 P_____________ AL031979 22.0575 -70.9802 TD 25 -1 6 331
1979190N20290 1979 51 NA NA NOT_NAMED 1979-07-09 06:00:00 TS 22.3000 -71.1000 25 hurdat_atl main 231 229 O_____________ hurdat_atl AL031979 22.3000 -71.1000 TD 25 -1 6 341
1979190N20290 1979 51 NA NA NOT_NAMED 1979-07-09 09:00:00 TS 22.6200 -71.1874 main 242 242 P_____________ AL031979 22.6200 -71.1874 TD 25 -1 7 353
1979190N20290 1979 51 NA NA NOT_NAMED 1979-07-09 12:00:00 TS 23.0000 -71.2000 25 hurdat_atl main 273 273 O_____________ hurdat_atl AL031979 23.0000 -71.2000 TD 25 -1 8 5
1979190N20290 1979 51 NA NA NOT_NAMED 1979-07-09 15:00:00 TS 23.4425 -71.1078 main 314 314 P_____________ AL031979 23.4425 -71.1078 TD 25 -1 9 12
1979190N20290 1979 51 NA NA NOT_NAMED 1979-07-09 18:00:00 TS 23.9000 -71.0000 25 hurdat_atl main 365 365 O_____________ hurdat_atl AL031979 23.9000 -71.0000 TD 25 -1 9 6
1979190N20290 1979 51 NA NA NOT_NAMED 1979-07-09 21:00:00 TS 24.3150 -70.9997 main 402 402 P_____________ AL031979 24.3150 -70.9997 TD 25 -1 8 1
1979190N20290 1979 51 NA NA NOT_NAMED 1979-07-10 00:00:00 TS 24.7000 -71.0000 25 hurdat_atl main 441 441 O_____________ hurdat_atl AL031979 24.7000 -71.0000 TD 25 -1 7 5
1979190N20290 1979 51 NA NA NOT_NAMED 1979-07-10 03:00:00 TS 25.0575 -70.9299 main 485 485 P_____________ AL031979 25.0575 -70.9299 TD 25 -1 7 15
1979190N20290 1979 51 NA NA NOT_NAMED 1979-07-10 06:00:00 TS 25.4000 -70.8000 25 hurdat_atl main 520 520 O_____________ hurdat_atl AL031979 25.4000 -70.8000 TD 25 -1 7 23
1979190N20290 1979 51 NA NA NOT_NAMED 1979-07-10 09:00:00 TS 25.7351 -70.6075 main 559 559 P_____________ AL031979 25.7351 -70.6075 TD 25 -1 8 27
1979190N20290 1979 51 NA NA NOT_NAMED 1979-07-10 12:00:00 TS 26.1000 -70.4000 25 hurdat_atl main 608 608 O_____________ hurdat_atl AL031979 26.1000 -70.4000 TD 25 -1 9 23
1979190N20290 1979 51 NA NA NOT_NAMED 1979-07-10 15:00:00 TS 26.5200 -70.2349 main 657 657 P_____________ AL031979 26.5200 -70.2349 TD 25 -1 9 17
1979190N20290 1979 51 NA NA NOT_NAMED 1979-07-10 18:00:00 TS 27.0000 -70.1000 25 hurdat_atl main 711 711 O_____________ hurdat_atl AL031979 27.0000 -70.1000 TD 25 -1 10 12
1979190N20290 1979 51 NA NA NOT_NAMED 1979-07-10 21:00:00 TS 27.5350 -69.9923 main 766 766 P_____________ AL031979 27.5350 -69.9923 TD 25 -1 11 9
1979190N20290 1979 51 NA NA NOT_NAMED 1979-07-11 00:00:00 TS 28.1000 -69.9000 25 hurdat_atl main 832 832 O_____________ hurdat_atl AL031979 28.1000 -69.9000 TD 25 -1 11 8
1979190N20290 1979 51 NA NA NOT_NAMED 1979-07-11 03:00:00 TS 28.6649 -69.8221 main 897 886 P_____________ AL031979 28.6649 -69.8221 TD 25 -1 11 9
1979190N20290 1979 51 NA NA NOT_NAMED 1979-07-11 06:00:00 TS 29.2000 -69.7000 25 hurdat_atl main 886 869 O_____________ hurdat_atl AL031979 29.2000 -69.7000 TD 25 -1 10 16
1979190N20290 1979 51 NA NA NOT_NAMED 1979-07-11 09:00:00 TS 29.6122 -69.5161 main 869 852 P_____________ AL031979 29.6122 -69.5161 TD 25 -1 10 26
1979190N20290 1979 51 NA NA NOT_NAMED 1979-07-11 12:00:00 TS 30.1000 -69.2000 25 hurdat_atl main 852 834 O_____________ hurdat_atl AL031979 30.1000 -69.2000 TD 25 -1 14 29
1979190N20290 1979 51 NA NA NOT_NAMED 1979-07-11 15:00:00 TS 30.8703 -68.6961 main 833 819 P_____________ AL031979 30.8703 -68.6961 TD 25 -1 19 31
1979190N20290 1979 51 NA NA NOT_NAMED 1979-07-11 18:00:00 TS 31.7000 -68.1000 25 hurdat_atl main 821 813 O_____________ hurdat_atl AL031979 31.7000 -68.1000 TD 25 -1 18 32
1979190N20290 1979 51 NA NA NOT_NAMED 1979-07-11 21:00:00 TS 32.3943 -67.5787 main 818 818 P_____________ AL031979 32.3943 -67.5787 TD 25 -1 16 36
1979190N20290 1979 51 NA NA NOT_NAMED 1979-07-12 00:00:00 TS 33.0000 -67.0000 25 hurdat_atl main 838 838 O_____________ hurdat_atl AL031979 33.0000 -67.0000 TD 25 -1 16 44
1979190N20290 1979 51 NA NA NOT_NAMED 1979-07-12 03:00:00 TS 33.5225 -66.2792 main 877 877 P_____________ AL031979 33.5225 -66.2792 TD 25 -1 16 51
1979190N20290 1979 51 NA NA NOT_NAMED 1979-07-12 06:00:00 TS 34.0000 -65.5000 25 hurdat_atl main 931 920 O_____________ hurdat_atl AL031979 34.0000 -65.5000 TD 25 -1 16 52
1979190N20290 1979 51 NA NA NOT_NAMED 1979-07-12 09:00:00 TS 34.4838 -64.7854 main 920 909 P_____________ AL031979 34.4838 -64.7854 TD 25 -1 16 51
1979190N20290 1979 51 NA NA NOT_NAMED 1979-07-12 12:00:00 TS 35.0000 -64.0000 25 hurdat_atl main 909 904 O_____________ hurdat_atl AL031979 35.0000 -64.0000 TD 25 -1 18 53
1979190N20290 1979 51 NA NA NOT_NAMED 1979-07-12 15:00:00 TS 35.5549 -63.0433 main 900 856 P_____________ AL031979 35.5549 -63.0433 TD 25 -1 20 54
1979190N20290 1979 51 NA NA NOT_NAMED 1979-07-12 18:00:00 TS 36.2000 -62.0000 25 hurdat_atl main 859 809 O_____________ hurdat_atl AL031979 36.2000 -62.0000 TD 25 -1 22 49
1979190N20290 1979 51 NA NA NOT_NAMED 1979-07-12 21:00:00 TS 36.9993 -60.9580 main 809 774 P_____________ AL031979 36.9993 -60.9580 TD 25 -1 23 46
1979190N20290 1979 51 NA NA NOT_NAMED 1979-07-13 00:00:00 TS 37.8000 -59.9000 25 hurdat_atl main 779 768 O_____________ hurdat_atl AL031979 37.8000 -59.9000 TD 25 -1 22 49
1979190N20290 1979 51 NA NA NOT_NAMED 1979-07-13 03:00:00 TS 38.4280 -58.8835 main 771 737 P_____________ AL031979 38.4280 -58.8835 TD 22 -1 20 54
1979190N20290 1979 51 NA NA NOT_NAMED 1979-07-13 06:00:00 TS 39.0000 -57.8000 20 hurdat_atl main 740 723 O_____________ hurdat_atl AL031979 39.0000 -57.8000 TD 20 -1 21 57
1979190N20290 1979 51 NA NA NOT_NAMED 1979-07-13 09:00:00 TS 39.5939 -56.5562 main 723 721 P_____________ AL031979 39.5939 -56.5562 TD 20 -1 23 59
1979190N20290 1979 51 NA NA NOT_NAMED 1979-07-13 12:00:00 TS 40.2000 -55.2000 20 hurdat_atl main 723 O_____________ hurdat_atl AL031979 40.2000 -55.2000 TD 20 -1 24 60

IBTrACS Databaseについて

本データベースは、米国NOAAが公開する1842年以降の世界の熱帯低気圧のベストトラックデータアーカイブInternational Best Track Archive for Climate Stewardship (IBTrACS)を、ウェブで閲覧しやすい形式に変換したものです。

最終更新日:2021-12-01